createdAt,value
2023-01-09T00:02:20.324Z,96356.56
2023-01-09T00:04:49.715Z,96346.38
2023-01-09T00:07:17.903Z,96349.03
2023-01-09T00:09:47.286Z,96346.38
2023-01-09T00:12:15.147Z,96353.34
2023-01-09T00:14:43.121Z,96346.66
2023-01-09T00:17:11.457Z,96346.09
2023-01-09T00:19:39.386Z,96341.03
2023-01-09T00:22:09.584Z,96341.56
2023-01-09T00:24:37.862Z,96337.53
2023-01-09T00:27:05.991Z,96335.09
2023-01-09T00:29:34.131Z,96329.75
2023-01-09T00:32:02.530Z,96322.16
2023-01-09T00:34:30.494Z,96333.75
2023-01-09T00:36:58.422Z,96333.16
2023-01-09T00:39:28.108Z,96334.53
2023-01-09T00:41:58.593Z,96327.19
2023-01-09T00:44:33.730Z,96323.72
2023-01-09T00:47:07.868Z,96333.09
2023-01-09T00:49:38.629Z,96340.34
2023-01-09T00:52:10.551Z,96348.13
2023-01-09T00:54:40.690Z,96352.44
2023-01-09T00:57:09.331Z,96349.50
2023-01-09T00:59:37.393Z,96355.13
2023-01-09T01:02:06.105Z,96340.88
2023-01-09T01:04:51.992Z,96341.22
2023-01-09T01:07:37.534Z,96344.16
2023-01-09T01:10:10.567Z,96335.31
2023-01-09T01:12:39.420Z,96333.72
2023-01-09T01:15:08.749Z,96333.41
2023-01-09T01:17:37.405Z,96340.69
2023-01-09T01:20:07.581Z,96333.13
2023-01-09T01:22:35.774Z,96331.28
2023-01-09T01:25:03.713Z,96331.31
2023-01-09T01:27:33.117Z,96330.00
2023-01-09T01:30:01.027Z,96327.59
2023-01-09T01:32:28.897Z,96327.59
2023-01-09T01:34:57.241Z,96321.69
2023-01-09T01:37:25.399Z,96324.66
2023-01-09T01:39:53.554Z,96328.41
2023-01-09T01:42:21.664Z,96327.59
2023-01-09T01:45:13.921Z,96331.63
2023-01-09T01:47:54.233Z,96321.44
2023-01-09T01:50:31.192Z,96322.50
2023-01-09T01:53:08.715Z,96314.19
2023-01-09T01:55:40.026Z,96318.19
2023-01-09T01:58:11.276Z,96311.47
2023-01-09T02:00:44.882Z,96318.44
2023-01-09T02:03:17.058Z,96321.91
2023-01-09T02:05:45.586Z,96321.91
2023-01-09T02:08:14.226Z,96326.69
2023-01-09T02:10:43.004Z,96333.69
2023-01-09T02:13:12.209Z,96328.63
2023-01-09T02:15:51.801Z,96335.22
2023-01-09T02:18:31.910Z,96326.69
2023-01-09T02:21:04.570Z,96328.28
2023-01-09T02:24:18.550Z,96330.97
2023-01-09T02:27:03.442Z,96317.03
2023-01-09T02:29:55.436Z,96314.94
2023-01-09T02:32:38.263Z,96320.28
2023-01-09T02:35:18.149Z,96316.53
2023-01-09T02:37:55.701Z,96318.16
2023-01-09T02:40:29.488Z,96309.06
2023-01-09T02:43:00.437Z,96306.41
2023-01-09T02:45:28.457Z,96306.94
2023-01-09T02:47:57.992Z,96310.97
2023-01-09T02:50:35.082Z,96301.88
2023-01-09T02:53:34.318Z,96292.75
2023-01-09T02:56:33.688Z,96321.97
2023-01-09T02:59:32.993Z,96335.91
2023-01-09T03:02:17.362Z,96323.31
2023-01-09T03:04:59.678Z,96339.38
2023-01-09T03:07:34.595Z,96328.38
2023-01-09T03:10:10.838Z,96328.63
2023-01-09T03:12:42.533Z,96321.09
2023-01-09T03:15:15.627Z,96342.03
2023-01-09T03:17:47.832Z,96349.53
2023-01-09T03:20:21.366Z,96358.94
2023-01-09T03:22:56.177Z,96358.38
2023-01-09T03:25:25.133Z,96358.13
2023-01-09T03:27:59.102Z,96373.94
2023-01-09T03:30:28.697Z,96360.00
2023-01-09T03:32:56.828Z,96358.66
2023-01-09T03:35:27.421Z,96359.75
2023-01-09T03:37:55.354Z,96356.50
2023-01-09T03:40:23.289Z,96366.16
2023-01-09T03:42:51.653Z,96373.94
2023-01-09T03:45:19.630Z,96384.13
2023-01-09T03:47:47.771Z,96390.56
2023-01-09T03:50:16.072Z,96391.66
2023-01-09T03:52:45.436Z,96398.34
2023-01-09T03:55:15.530Z,96412.81
2023-01-09T03:57:44.200Z,96421.41
2023-01-09T04:00:13.363Z,96439.09
2023-01-09T04:02:41.299Z,96445.22
2023-01-09T04:05:10.251Z,96449.28
2023-01-09T04:07:38.219Z,96445.22
2023-01-09T04:10:08.249Z,96457.84
2023-01-09T04:12:36.386Z,96481.94
2023-01-09T04:15:04.706Z,96504.97
2023-01-09T04:17:32.892Z,96508.97
2023-01-09T04:20:01.149Z,96541.41
2023-01-09T04:22:29.349Z,96546.25
2023-01-09T04:24:57.396Z,96563.66
2023-01-09T04:27:27.091Z,96568.72
2023-01-09T04:29:54.999Z,96571.94
2023-01-09T04:32:23.031Z,96583.44
2023-01-09T04:34:51.326Z,96594.16
2023-01-09T04:37:19.227Z,96595.22
2023-01-09T04:39:47.122Z,96582.63
2023-01-09T04:42:15.576Z,96589.31
2023-01-09T04:44:44.867Z,96595.19
2023-01-09T04:47:13.815Z,96607.50
2023-01-09T04:49:42.067Z,96595.69
2023-01-09T04:52:10.388Z,96600.25
2023-01-09T04:54:39.583Z,96607.72
2023-01-09T04:57:08.321Z,96606.66
2023-01-09T04:59:36.333Z,96607.19
2023-01-09T05:02:05.860Z,96611.19
2023-01-09T05:04:34.753Z,96607.44
2023-01-09T05:07:02.923Z,96607.69
2023-01-09T05:09:31.177Z,96613.56
2023-01-09T05:12:01.716Z,96614.34
2023-01-09T05:14:30.002Z,96611.41
2023-01-09T05:16:58.134Z,96623.47
2023-01-09T05:19:28.083Z,96637.34
2023-01-09T05:21:56.040Z,96642.44
2023-01-09T05:24:23.889Z,96643.78
2023-01-09T05:26:51.825Z,96652.63
2023-01-09T05:29:19.996Z,96652.59
2023-01-09T05:31:47.958Z,96668.38
2023-01-09T05:34:16.486Z,96665.97
2023-01-09T05:36:45.981Z,96659.03
2023-01-09T05:39:14.022Z,96667.88
2023-01-09T05:41:42.589Z,96680.44
2023-01-09T05:44:10.468Z,96684.41
2023-01-09T05:46:38.791Z,96692.47
2023-01-09T05:49:06.723Z,96704.47
2023-01-09T05:51:35.185Z,96710.56
2023-01-09T05:54:07.979Z,96721.03
2023-01-09T05:56:35.920Z,96724.47
2023-01-09T05:59:04.189Z,96735.41
2023-01-09T06:01:32.686Z,96737.56
2023-01-09T06:04:00.956Z,96736.75
2023-01-09T06:06:28.823Z,96732.44
2023-01-09T06:08:57.071Z,96741.00
2023-01-09T06:11:26.661Z,96742.06
2023-01-09T06:13:54.684Z,96744.47
2023-01-09T06:16:23.015Z,96754.59
2023-01-09T06:18:51.593Z,96749.50
2023-01-09T06:21:19.700Z,96749.78
2023-01-09T06:23:48.171Z,96749.97
2023-01-09T06:26:16.479Z,96752.09
2023-01-09T06:28:46.053Z,96749.13
2023-01-09T06:31:14.919Z,96756.31
2023-01-09T06:33:42.970Z,96760.28
2023-01-09T06:36:11.226Z,96760.25
2023-01-09T06:38:39.600Z,96761.00
2023-01-09T06:41:08.286Z,96773.81
2023-01-09T06:43:37.097Z,96774.88
2023-01-09T06:46:07.056Z,96777.00
2023-01-09T06:48:35.525Z,96775.38
2023-01-09T06:51:03.831Z,96779.13
2023-01-09T06:53:32.431Z,96774.59
2023-01-09T06:56:02.351Z,96764.66
2023-01-09T06:58:30.623Z,96778.81
2023-01-09T07:00:59.970Z,96777.50
2023-01-09T07:03:29.683Z,96781.78
2023-01-09T07:05:57.868Z,96779.66
2023-01-09T07:08:26.267Z,96774.59
2023-01-09T07:10:54.242Z,96775.91
2023-01-09T07:13:22.331Z,96789.81
2023-01-09T07:15:50.937Z,96788.19
2023-01-09T07:18:19.090Z,96785.47
2023-01-09T07:20:48.611Z,96787.13
2023-01-09T07:23:19.117Z,96794.09
2023-01-09T07:25:48.184Z,96787.94
2023-01-09T07:28:16.203Z,96793.28
2023-01-09T07:30:44.748Z,96800.25
2023-01-09T07:33:13.084Z,96803.97
2023-01-09T07:35:41.335Z,96811.97
2023-01-09T07:38:11.143Z,96804.78
2023-01-09T07:40:39.441Z,96808.56
2023-01-09T07:43:07.372Z,96804.47
2023-01-09T07:45:35.734Z,96810.44
2023-01-09T07:48:03.624Z,96810.44
2023-01-09T07:50:31.816Z,96802.09
2023-01-09T07:53:00.743Z,96808.25
2023-01-09T07:55:30.294Z,96802.66
2023-01-09T07:57:58.266Z,96810.69
2023-01-09T08:00:27.039Z,96813.34
2023-01-09T08:02:55.347Z,96817.13
2023-01-09T08:05:23.478Z,96823.03
2023-01-09T08:07:51.916Z,96833.41
2023-01-09T08:10:23.230Z,96835.59
2023-01-09T08:12:53.457Z,96838.84
2023-01-09T08:15:21.369Z,96838.31
2023-01-09T08:17:49.561Z,96838.09
2023-01-09T08:20:19.104Z,96842.09
2023-01-09T08:22:50.692Z,96853.59
2023-01-09T08:25:20.181Z,96844.56
2023-01-09T08:27:48.461Z,96848.09
2023-01-09T08:30:19.032Z,96843.28
2023-01-09T08:32:50.883Z,96837.44
2023-01-09T08:35:19.295Z,96835.91
2023-01-09T08:37:47.913Z,96838.34
2023-01-09T08:40:17.674Z,96821.78
2023-01-09T08:43:03.738Z,96842.94
2023-01-09T08:45:51.733Z,96839.69
2023-01-09T08:48:22.232Z,96838.69
2023-01-09T08:50:50.800Z,96839.75
2023-01-09T08:53:19.217Z,96833.28
2023-01-09T08:55:47.466Z,96836.78
2023-01-09T08:58:15.760Z,96835.47
2023-01-09T09:00:45.607Z,96826.88
2023-01-09T09:03:13.624Z,96825.56
2023-01-09T09:05:41.810Z,96825.59
2023-01-09T09:08:10.194Z,96825.59
2023-01-09T09:10:38.128Z,96818.94
2023-01-09T09:13:06.086Z,96822.97
2023-01-09T09:15:34.566Z,96823.28
2023-01-09T09:18:06.479Z,96817.69
2023-01-09T09:20:36.024Z,96811.31
2023-01-09T09:23:04.750Z,96803.81
2023-01-09T09:25:33.930Z,96804.16
2023-01-09T09:28:02.087Z,96804.44
2023-01-09T09:30:30.067Z,96817.88
2023-01-09T09:32:57.981Z,96818.44
2023-01-09T09:35:28.587Z,96823.03
2023-01-09T09:37:58.836Z,96816.38
2023-01-09T09:40:45.590Z,96813.47
2023-01-09T09:43:49.015Z,96829.56
2023-01-09T09:46:30.301Z,96824.78
2023-01-09T09:49:05.948Z,96824.81
2023-01-09T09:51:58.304Z,96820.28
2023-01-09T09:54:33.588Z,96834.72
2023-01-09T09:57:04.924Z,96832.56
2023-01-09T09:59:37.340Z,96840.28
2023-01-09T10:02:17.256Z,96840.56
2023-01-09T10:04:56.779Z,96830.94
2023-01-09T10:07:31.258Z,96832.03
2023-01-09T10:10:05.608Z,96815.97
2023-01-09T10:12:38.510Z,96816.25
2023-01-09T10:15:17.633Z,96822.16
2023-01-09T10:17:55.469Z,96814.13
2023-01-09T10:20:56.429Z,96812.53
2023-01-09T10:23:52.748Z,96808.53
2023-01-09T10:26:27.724Z,96815.50
2023-01-09T10:29:22.422Z,96807.22
2023-01-09T10:32:02.077Z,96822.22
2023-01-09T10:34:46.781Z,96832.41
2023-01-09T10:37:19.878Z,96826.25
2023-01-09T10:39:54.480Z,96823.84
2023-01-09T10:42:30.761Z,96812.56
2023-01-09T10:45:07.665Z,96810.97
2023-01-09T10:47:38.375Z,96810.69
2023-01-09T10:50:20.902Z,96815.78
2023-01-09T10:52:51.404Z,96807.25
2023-01-09T10:55:28.472Z,96802.47
2023-01-09T10:58:00.931Z,96795.50
2023-01-09T11:00:29.168Z,96797.66
2023-01-09T11:02:57.594Z,96790.41
2023-01-09T11:05:29.177Z,96780.72
2023-01-09T11:08:02.662Z,96776.94
2023-01-09T11:13:27.420Z,96770.75
2023-01-09T11:16:05.540Z,96764.31
2023-01-09T11:18:35.171Z,96778.78
2023-01-09T11:21:26.997Z,96784.19
2023-01-09T11:23:55.061Z,96785.78
2023-01-09T11:26:25.175Z,96780.16
2023-01-09T11:29:13.792Z,96785.53
2023-01-09T11:31:43.029Z,96781.50
2023-01-09T11:34:18.020Z,96778.56
2023-01-09T11:36:46.936Z,96773.78
2023-01-09T11:39:24.953Z,96781.56
2023-01-09T11:41:56.061Z,96784.25
2023-01-09T11:44:26.880Z,96779.41
2023-01-09T11:46:55.022Z,96776.19
2023-01-09T11:49:24.641Z,96765.19
2023-01-09T11:52:17.300Z,96773.50
2023-01-09T11:54:51.205Z,96781.84
2023-01-09T11:57:19.974Z,96779.41
2023-01-09T11:59:50.323Z,96774.31
2023-01-09T12:02:53.729Z,96771.91
2023-01-09T12:05:34.645Z,96770.56
2023-01-09T12:08:15.029Z,96762.50
2023-01-09T12:11:18.764Z,96778.34
2023-01-09T12:14:05.663Z,96772.72
2023-01-09T12:16:39.708Z,96777.81
2023-01-09T12:19:23.121Z,96774.31
2023-01-09T12:21:58.903Z,96769.75
2023-01-09T12:24:49.963Z,96776.72
2023-01-09T12:27:30.700Z,96781.03
2023-01-09T12:30:17.268Z,96770.03
2023-01-09T12:32:59.867Z,96771.63
2023-01-09T12:35:37.868Z,96771.91
2023-01-09T12:38:36.664Z,96777.28
2023-01-09T12:41:35.616Z,96774.06
2023-01-09T12:44:35.444Z,96778.34
2023-01-09T12:47:17.783Z,96788.25
2023-01-09T12:49:55.159Z,96793.88
2023-01-09T12:52:27.825Z,96793.28
2023-01-09T12:55:02.592Z,96796.81
2023-01-09T12:57:37.504Z,96796.75
2023-01-09T13:00:15.205Z,96797.88
2023-01-09T13:02:47.701Z,96807.22
2023-01-09T13:05:20.971Z,96817.66
2023-01-09T13:07:55.713Z,96817.91
2023-01-09T13:10:28.020Z,96819.50
2023-01-09T13:12:59.608Z,96813.06
2023-01-09T13:15:33.108Z,96805.56
2023-01-09T13:18:07.361Z,96807.44
2023-01-09T13:20:43.244Z,96809.88
2023-01-09T13:23:19.028Z,96810.94
2023-01-09T13:25:48.392Z,96818.19
2023-01-09T13:28:23.017Z,96816.03
2023-01-09T13:31:13.299Z,96816.81
2023-01-09T13:33:45.512Z,96817.38
2023-01-09T13:36:25.489Z,96832.59
2023-01-09T13:38:55.770Z,96841.41
2023-01-09T13:41:45.460Z,96846.53
2023-01-09T13:44:29.087Z,96828.06
2023-01-09T13:46:59.629Z,96833.16
2023-01-09T13:49:33.383Z,96829.41
2023-01-09T13:52:05.719Z,96827.28
2023-01-09T13:55:02.951Z,96818.69
2023-01-09T13:57:34.783Z,96814.13
2023-01-09T14:00:45.024Z,96826.16
2023-01-09T14:03:20.657Z,96839.56
2023-01-09T14:06:21.577Z,96846.78
2023-01-09T14:09:12.907Z,96856.13
2023-01-09T14:11:42.113Z,96849.41
2023-01-09T14:14:23.906Z,96852.59
2023-01-09T14:16:52.645Z,96860.66
2023-01-09T14:19:33.125Z,96869.72
2023-01-09T14:22:02.438Z,96888.91
2023-01-09T14:24:35.099Z,96885.41
2023-01-09T14:27:03.502Z,96894.22
2023-01-09T14:29:43.603Z,96900.59
2023-01-09T14:32:39.189Z,96897.91
2023-01-09T14:35:16.046Z,96907.00
2023-01-09T14:37:46.286Z,96903.25
2023-01-09T14:40:24.313Z,96915.09
2023-01-09T14:42:55.474Z,96920.44
2023-01-09T14:45:26.300Z,96919.13
2023-01-09T14:47:58.058Z,96925.84
2023-01-09T14:50:34.129Z,96932.50
2023-01-09T14:53:07.377Z,96937.53
2023-01-09T14:55:51.342Z,96931.88
2023-01-09T14:58:27.907Z,96947.38
2023-01-09T15:01:02.347Z,96957.78
2023-01-09T15:03:37.817Z,96959.19
2023-01-09T15:06:07.133Z,96955.38
2023-01-09T15:08:35.513Z,96955.88
2023-01-09T15:11:05.443Z,96955.13
2023-01-09T15:13:36.366Z,96958.00
2023-01-09T15:16:07.296Z,96961.94
2023-01-09T15:18:43.236Z,96977.97
2023-01-09T15:21:25.275Z,96977.16
2023-01-09T15:23:53.842Z,96980.06
2023-01-09T15:26:29.643Z,96984.63
2023-01-09T15:29:03.050Z,96981.38
2023-01-09T15:31:31.958Z,96985.94
2023-01-09T15:34:00.488Z,96985.94
2023-01-09T15:36:31.168Z,96983.75
2023-01-09T15:39:00.784Z,96975.44
2023-01-09T15:41:49.230Z,96985.81
2023-01-09T15:44:22.144Z,97002.22
2023-01-09T15:46:51.891Z,97009.19
2023-01-09T15:49:20.609Z,97040.59
2023-01-09T15:51:50.599Z,97041.94
2023-01-09T15:54:22.341Z,97040.97
2023-01-09T15:56:52.150Z,97046.44
2023-01-09T15:59:30.466Z,97044.28
2023-01-09T16:02:15.636Z,97061.53
2023-01-09T16:04:43.834Z,97061.38
2023-01-09T16:07:16.949Z,97057.06
2023-01-09T16:09:50.126Z,97064.25
2023-01-09T16:12:23.375Z,97074.03
2023-01-09T16:14:54.334Z,97085.25
2023-01-09T16:17:26.993Z,97067.31
2023-01-09T16:19:58.152Z,97065.94
2023-01-09T16:22:29.183Z,97071.59
2023-01-09T16:24:58.709Z,97087.38
2023-01-09T16:27:31.797Z,97080.50
2023-01-09T16:30:01.305Z,97082.34
2023-01-09T16:32:31.697Z,97072.16
2023-01-09T16:35:04.654Z,97088.38
2023-01-09T16:37:34.557Z,97083.97
2023-01-09T16:40:25.260Z,97091.53
2023-01-09T16:43:03.989Z,97097.69
2023-01-09T16:45:37.542Z,97096.38
2023-01-09T16:48:16.359Z,97096.91
2023-01-09T16:50:45.558Z,97103.59
2023-01-09T16:53:17.831Z,97114.06
2023-01-09T16:55:46.479Z,97118.84
2023-01-09T16:58:19.712Z,97122.91
2023-01-09T17:00:48.029Z,97124.28
2023-01-09T17:03:17.707Z,97125.41
2023-01-09T17:05:46.613Z,97125.16
2023-01-09T17:08:22.331Z,97124.69
2023-01-09T17:10:50.693Z,97123.31
2023-01-09T17:13:20.833Z,97119.56
2023-01-09T17:15:49.531Z,97124.09
2023-01-09T17:18:20.104Z,97146.38
2023-01-09T17:20:53.171Z,97146.53
2023-01-09T17:23:22.568Z,97140.88
2023-01-09T17:26:10.028Z,97139.25
2023-01-09T17:28:43.472Z,97143.78
2023-01-09T17:31:13.136Z,97141.09
2023-01-09T17:33:43.143Z,97135.75
2023-01-09T17:36:23.281Z,97139.25
2023-01-09T17:38:55.369Z,97131.00
2023-01-09T17:41:24.341Z,97150.97
2023-01-09T17:43:54.110Z,97149.13
2023-01-09T17:46:29.090Z,97152.28
2023-01-09T17:48:57.422Z,97147.50
2023-01-09T17:51:25.868Z,97155.03
2023-01-09T17:53:54.100Z,97149.59
2023-01-09T17:56:24.544Z,97151.31
2023-01-09T17:58:54.468Z,97162.72
2023-01-09T18:01:23.089Z,97167.50
2023-01-09T18:03:51.118Z,97173.88
2023-01-09T18:06:21.060Z,97171.22
2023-01-09T18:08:49.472Z,97179.31
2023-01-09T18:11:19.954Z,97176.56
2023-01-09T18:13:50.142Z,97183.84
2023-01-09T18:16:23.937Z,97184.81
2023-01-09T18:18:52.508Z,97188.63
2023-01-09T18:21:23.552Z,97194.94
2023-01-09T18:23:52.156Z,97205.13
2023-01-09T18:26:22.121Z,97209.84
2023-01-09T18:28:52.120Z,97222.38
2023-01-09T18:31:24.396Z,97235.75
2023-01-09T18:33:54.133Z,97238.03
2023-01-09T18:36:25.119Z,97247.47
2023-01-09T18:38:53.754Z,97247.69
2023-01-09T18:41:25.495Z,97255.94
2023-01-09T18:43:54.857Z,97255.13
2023-01-09T18:46:25.363Z,97260.47
2023-01-09T18:48:54.291Z,97265.81
2023-01-09T18:51:23.045Z,97264.38
2023-01-09T18:53:52.200Z,97273.56
2023-01-09T18:56:20.638Z,97274.28
2023-01-09T18:58:49.289Z,97284.88
2023-01-09T19:01:18.330Z,97297.75
2023-01-09T19:03:47.840Z,97291.97
2023-01-09T19:06:16.193Z,97304.59
2023-01-09T19:08:44.321Z,97309.13
2023-01-09T19:11:12.788Z,97323.28
2023-01-09T19:13:40.895Z,97311.81
2023-01-09T19:16:10.169Z,97323.19
2023-01-09T19:18:40.338Z,97331.44
2023-01-09T19:21:15.615Z,97335.16
2023-01-09T19:23:44.852Z,97350.59
2023-01-09T19:26:22.640Z,97344.34
2023-01-09T19:28:51.953Z,97354.19
2023-01-09T19:31:20.161Z,97358.81
2023-01-09T19:33:48.480Z,97370.09
2023-01-09T19:36:20.232Z,97360.22
2023-01-09T19:38:48.584Z,97366.97
2023-01-09T19:41:23.318Z,97359.88
2023-01-09T19:43:52.675Z,97365.91
2023-01-09T19:46:25.568Z,97374.50
2023-01-09T19:48:58.749Z,97377.16
2023-01-09T19:51:32.086Z,97381.00
2023-01-09T19:56:30.371Z,97390.75
2023-01-09T19:59:00.261Z,97388.91
2023-01-09T20:01:33.738Z,97394.47
2023-01-09T20:04:05.080Z,97392.28
2023-01-09T20:06:37.474Z,97411.78
2023-01-09T20:09:07.685Z,97403.75
2023-01-09T20:11:36.260Z,97415.84
2023-01-09T20:14:04.664Z,97419.09
2023-01-09T20:16:33.047Z,97412.59
2023-01-09T20:19:07.458Z,97414.22
2023-01-09T20:21:37.499Z,97411.78
2023-01-09T20:24:07.625Z,97412.00
2023-01-09T20:26:37.691Z,97420.47
2023-01-09T20:29:05.644Z,97425.00
2023-01-09T20:31:34.674Z,97431.38
2023-01-09T20:34:03.207Z,97437.53
2023-01-09T20:36:32.369Z,97442.06
2023-01-09T20:39:03.322Z,97445.09
2023-01-09T20:41:31.751Z,97449.16
2023-01-09T20:44:02.297Z,97444.72
2023-01-09T20:46:34.870Z,97456.44
2023-01-09T20:49:03.605Z,97461.22
2023-01-09T20:51:32.105Z,97455.66
2023-01-09T20:54:02.081Z,97456.81
2023-01-09T20:56:31.746Z,97467.47
2023-01-09T20:59:00.410Z,97469.56
2023-01-09T21:01:30.488Z,97468.41
2023-01-09T21:03:59.044Z,97477.91
2023-01-09T21:06:28.787Z,97479.19
2023-01-09T21:08:57.241Z,97483.25
2023-01-09T21:11:26.528Z,97481.88
2023-01-09T21:13:54.528Z,97490.22
2023-01-09T21:16:25.099Z,97493.72
2023-01-09T21:18:55.258Z,97487.78
2023-01-09T21:21:26.728Z,97489.53
2023-01-09T21:23:56.731Z,97490.00
2023-01-09T21:26:30.967Z,97488.13
2023-01-09T21:29:02.005Z,97491.84
2023-01-09T21:31:35.045Z,97500.69
2023-01-09T21:34:04.802Z,97496.38
2023-01-09T21:36:33.302Z,97501.94
2023-01-09T21:39:01.851Z,97508.09
2023-01-09T21:41:49.101Z,97511.56
2023-01-09T21:44:34.755Z,97509.13
2023-01-09T21:47:04.125Z,97515.75
2023-01-09T21:49:35.393Z,97519.22
2023-01-09T21:52:04.957Z,97520.06
2023-01-09T21:54:34.015Z,97527.00
2023-01-09T21:57:04.491Z,97523.75
2023-01-09T21:59:32.556Z,97529.91
2023-01-09T22:02:00.661Z,97538.38
2023-01-09T22:04:31.658Z,97534.66
2023-01-09T22:07:02.390Z,97536.41
2023-01-09T22:09:30.640Z,97542.53
2023-01-09T22:11:59.000Z,97540.09
2023-01-09T22:14:28.456Z,97545.69
2023-01-09T22:16:56.411Z,97551.59
2023-01-09T22:19:26.172Z,97566.56
2023-01-09T22:21:55.697Z,97562.03
2023-01-09T22:24:23.762Z,97566.56
2023-01-09T22:26:51.920Z,97579.69
2023-01-09T22:29:20.063Z,97583.63
2023-01-09T22:31:49.751Z,97577.47
2023-01-09T22:34:19.253Z,97590.59
2023-01-09T22:36:47.971Z,97596.75
2023-01-09T22:39:18.783Z,97598.13
2023-01-09T22:41:51.371Z,97604.16
2023-01-09T22:44:19.730Z,97606.38
2023-01-09T22:46:49.145Z,97610.91
2023-01-09T22:49:17.089Z,97624.00
2023-01-09T22:51:45.682Z,97615.56
2023-01-09T22:54:13.965Z,97618.44
2023-01-09T22:56:41.887Z,97622.97
2023-01-09T22:59:10.659Z,97629.34
2023-01-09T23:01:38.875Z,97630.16
2023-01-09T23:04:08.892Z,97635.50
2023-01-09T23:06:37.144Z,97632.84
2023-01-09T23:09:05.157Z,97645.59
2023-01-09T23:11:50.435Z,97650.13
2023-01-09T23:14:18.760Z,97645.59
2023-01-09T23:16:46.796Z,97656.94
2023-01-09T23:19:16.608Z,97665.53
2023-01-09T23:21:46.232Z,97661.25
2023-01-09T23:24:15.510Z,97667.53
2023-01-09T23:26:43.933Z,97671.69
2023-01-09T23:29:12.781Z,97672.50
2023-01-09T23:31:41.375Z,97686.22
2023-01-09T23:34:09.561Z,97682.13
2023-01-09T23:36:38.893Z,97683.31
2023-01-09T23:39:10.143Z,97682.06
2023-01-09T23:41:54.802Z,97680.56
2023-01-09T23:44:22.816Z,97685.31
2023-01-09T23:46:50.820Z,97684.34
2023-01-09T23:49:18.874Z,97687.84
2023-01-09T23:51:48.600Z,97694.66
2023-01-09T23:54:17.398Z,97696.75
2023-01-09T23:56:45.540Z,97701.72
2023-01-09T23:59:15.665Z,97703.34
